createdAt,value
2019-01-26T00:00:01.743Z,-0.45
2019-01-26T00:01:01.717Z,-0.44
2019-01-26T00:02:01.702Z,-0.49
2019-01-26T00:03:01.691Z,-0.39
2019-01-26T00:04:01.708Z,-0.47
2019-01-26T00:05:01.672Z,-0.49
2019-01-26T00:06:01.683Z,-0.44
2019-01-26T00:07:01.683Z,-0.42
2019-01-26T00:08:01.696Z,-0.38
2019-01-26T00:09:01.648Z,-0.37
2019-01-26T00:10:01.617Z,-0.39
2019-01-26T00:11:02.465Z,-0.39
2019-01-26T00:12:01.622Z,-0.39
2019-01-26T00:13:01.607Z,-0.35
2019-01-26T00:14:01.577Z,-0.38
2019-01-26T00:15:01.726Z,-0.34
2019-01-26T00:16:01.559Z,-0.37
2019-01-26T00:17:01.592Z,-0.37
2019-01-26T00:18:01.552Z,-0.32
2019-01-26T00:19:01.659Z,-0.26
2019-01-26T00:20:01.551Z,-0.34
2019-01-26T00:21:01.587Z,-0.37
2019-01-26T00:22:01.511Z,-0.37
2019-01-26T00:23:01.543Z,-0.32
2019-01-26T00:24:01.537Z,-0.34
2019-01-26T00:25:01.511Z,-0.34
2019-01-26T00:26:01.503Z,-0.35
2019-01-26T00:27:01.466Z,-0.35
2019-01-26T00:28:01.489Z,-0.32
2019-01-26T00:29:01.448Z,-0.32
2019-01-26T00:30:01.437Z,-0.30
2019-01-26T00:31:01.404Z,-0.21
2019-01-26T00:32:01.387Z,-0.26
2019-01-26T00:33:01.405Z,-0.26
2019-01-26T00:34:01.406Z,-0.24
2019-01-26T00:35:01.360Z,-0.21
2019-01-26T00:36:01.356Z,-0.19
2019-01-26T00:37:01.443Z,-0.17
2019-01-26T00:38:01.329Z,-0.20
2019-01-26T00:39:01.331Z,-0.19
2019-01-26T00:40:01.312Z,-0.19
2019-01-26T00:41:01.299Z,-0.19
2019-01-26T00:42:01.292Z,-0.06
2019-01-26T00:43:01.268Z,-0.08
2019-01-26T00:44:01.309Z,-0.12
2019-01-26T00:45:01.281Z,-0.02
2019-01-26T00:46:01.251Z,0.01
2019-01-26T00:47:01.244Z,-0.03
2019-01-26T00:48:01.261Z,-0.02
2019-01-26T00:49:01.244Z,0.01
2019-01-26T00:50:01.208Z,0.01
2019-01-26T00:51:01.204Z,0.02
2019-01-26T00:52:01.210Z,-0.01
2019-01-26T00:53:01.186Z,-0.03
2019-01-26T00:54:01.181Z,-0.03
2019-01-26T00:55:01.205Z,-0.08
2019-01-26T00:56:01.151Z,-0.08
2019-01-26T00:57:01.146Z,-0.03
2019-01-26T00:58:01.136Z,-0.03
2019-01-26T00:59:01.228Z,-0.02
2019-01-26T01:00:01.144Z,0.02
2019-01-26T01:01:01.094Z,0.04
2019-01-26T01:02:01.097Z,0.05
2019-01-26T01:03:01.167Z,0.12
2019-01-26T01:04:01.065Z,0.05
2019-01-26T01:05:01.062Z,0.05
2019-01-26T01:06:01.046Z,0.05
2019-01-26T01:07:01.030Z,0.10
2019-01-26T01:08:01.025Z,0.10
2019-01-26T01:09:01.068Z,0.10
2019-01-26T01:10:01.008Z,0.04
2019-01-26T01:11:00.979Z,0.10
2019-01-26T01:12:00.975Z,0.07
2019-01-26T01:13:00.976Z,0.15
2019-01-26T01:14:00.953Z,0.10
2019-01-26T01:15:00.970Z,0.05
2019-01-26T01:16:00.943Z,0.08
2019-01-26T01:17:00.939Z,0.16
2019-01-26T01:18:00.926Z,0.15
2019-01-26T01:19:00.984Z,0.15
2019-01-26T01:20:00.954Z,0.19
2019-01-26T01:21:01.916Z,0.07
2019-01-26T01:22:00.874Z,0.20
2019-01-26T01:23:00.855Z,0.08
2019-01-26T01:24:00.885Z,0.04
2019-01-26T01:25:00.939Z,0.19
2019-01-26T01:26:00.841Z,0.15
2019-01-26T01:27:00.820Z,0.17
2019-01-26T01:28:01.597Z,0.17
2019-01-26T01:29:00.797Z,0.17
2019-01-26T01:30:00.808Z,0.16
2019-01-26T01:31:00.826Z,0.26
2019-01-26T01:32:00.777Z,0.26
2019-01-26T01:33:00.865Z,0.22
2019-01-26T01:34:00.740Z,0.30
2019-01-26T01:35:00.788Z,0.30
2019-01-26T01:36:00.731Z,0.31
2019-01-26T01:37:00.710Z,0.28
2019-01-26T01:38:00.710Z,0.30
2019-01-26T01:39:00.714Z,0.40
2019-01-26T01:40:00.731Z,0.28
2019-01-26T01:41:00.664Z,0.35
2019-01-26T01:42:00.669Z,0.31
2019-01-26T01:43:00.654Z,0.37
2019-01-26T01:44:00.647Z,0.38
2019-01-26T01:45:00.696Z,0.37
2019-01-26T01:46:00.618Z,0.28
2019-01-26T01:47:00.620Z,0.34
2019-01-26T01:48:00.617Z,0.44
2019-01-26T01:49:00.593Z,0.35
2019-01-26T01:50:00.623Z,0.44
2019-01-26T01:51:00.564Z,0.51
2019-01-26T01:52:00.554Z,0.48
2019-01-26T01:53:00.555Z,0.48
2019-01-26T01:54:00.555Z,0.51
2019-01-26T01:55:00.573Z,0.52
2019-01-26T01:56:00.515Z,0.48
2019-01-26T01:57:00.544Z,0.53
2019-01-26T01:58:00.498Z,0.52
2019-01-26T01:59:00.482Z,0.56
2019-01-26T02:00:00.487Z,0.71
2019-01-26T02:01:00.502Z,0.67
2019-01-26T02:02:00.500Z,0.63
2019-01-26T02:03:00.455Z,0.64
2019-01-26T02:04:00.430Z,0.67
2019-01-26T02:05:00.423Z,0.63
2019-01-26T02:06:00.437Z,0.70
2019-01-26T02:07:00.433Z,0.71
2019-01-26T02:08:00.388Z,0.64
2019-01-26T02:09:00.396Z,0.78
2019-01-26T02:10:00.369Z,0.72
2019-01-26T02:11:00.364Z,0.82
2019-01-26T02:12:00.368Z,0.75
2019-01-26T02:13:00.336Z,0.77
2019-01-26T02:14:00.329Z,0.78
2019-01-26T02:15:00.318Z,0.81
2019-01-26T02:16:00.310Z,0.82
2019-01-26T02:17:00.320Z,0.95
2019-01-26T02:18:00.317Z,0.98
2019-01-26T02:19:00.305Z,0.99
2019-01-26T02:20:00.265Z,0.92
2019-01-26T02:21:00.251Z,0.93
2019-01-26T02:22:00.247Z,0.95
2019-01-26T02:23:00.272Z,0.98
2019-01-26T02:24:00.265Z,0.92
2019-01-26T02:25:00.248Z,0.92
2019-01-26T02:26:00.293Z,1.00
2019-01-26T02:27:00.198Z,0.90
2019-01-26T02:28:00.186Z,1.08
2019-01-26T02:29:00.202Z,0.96
2019-01-26T02:30:00.355Z,1.04
2019-01-26T02:31:00.155Z,1.02
2019-01-26T02:32:00.172Z,1.04
2019-01-26T02:33:00.131Z,1.10
2019-01-26T02:34:00.109Z,1.14
2019-01-26T02:35:00.305Z,1.08
2019-01-26T02:36:00.099Z,1.10
2019-01-26T02:37:00.106Z,1.24
2019-01-26T02:38:00.077Z,1.16
2019-01-26T02:39:00.067Z,1.18
2019-01-26T02:40:00.364Z,1.20
2019-01-26T02:41:00.039Z,1.20
2019-01-26T02:42:00.037Z,1.11
2019-01-26T02:43:00.020Z,1.24
2019-01-26T02:44:00.017Z,1.21
2019-01-26T02:44:59.998Z,1.26
2019-01-26T02:46:00.002Z,1.32
2019-01-26T02:46:59.998Z,1.36
2019-01-26T02:47:59.974Z,1.32
2019-01-26T02:48:59.975Z,1.36
2019-01-26T02:50:00.014Z,1.35
2019-01-26T02:50:59.953Z,1.39
2019-01-26T02:51:59.937Z,1.43
2019-01-26T02:52:59.917Z,1.39
2019-01-26T02:53:59.914Z,1.34
2019-01-26T02:54:59.922Z,1.38
2019-01-26T02:55:59.920Z,1.34
2019-01-26T02:56:59.873Z,1.38
2019-01-26T02:57:59.878Z,1.34
2019-01-26T02:58:59.851Z,1.38
2019-01-26T02:59:59.844Z,1.35
2019-01-26T03:00:59.851Z,1.28
2019-01-26T03:01:59.865Z,1.34
2019-01-26T03:02:59.825Z,1.28
2019-01-26T03:03:59.808Z,1.36
2019-01-26T03:04:59.789Z,1.34
2019-01-26T03:05:59.784Z,1.35
2019-01-26T03:06:59.840Z,1.31
2019-01-26T03:07:59.746Z,1.34
2019-01-26T03:08:59.742Z,1.39
2019-01-26T03:09:59.738Z,1.35
2019-01-26T03:10:59.727Z,1.42
2019-01-26T03:11:59.740Z,1.35
2019-01-26T03:12:59.748Z,1.31
2019-01-26T03:13:59.684Z,1.34
2019-01-26T03:14:59.678Z,1.31
2019-01-26T03:15:59.669Z,1.35
2019-01-26T03:17:05.820Z,1.39
2019-01-26T03:18:00.652Z,1.42
2019-01-26T03:18:59.662Z,1.42
2019-01-26T03:19:59.630Z,1.39
2019-01-26T03:20:59.613Z,1.42
2019-01-26T03:21:59.631Z,1.31
2019-01-26T03:22:59.607Z,1.44
2019-01-26T03:23:59.603Z,1.34
2019-01-26T03:24:59.589Z,1.32
2019-01-26T03:25:59.563Z,1.47
2019-01-26T03:27:00.074Z,1.49
2019-01-26T03:27:59.554Z,1.43
2019-01-26T03:28:59.535Z,1.46
2019-01-26T03:29:59.543Z,1.39
2019-01-26T03:30:59.545Z,1.42
2019-01-26T03:31:59.508Z,1.50
2019-01-26T03:32:59.509Z,1.44
2019-01-26T03:33:59.477Z,1.50
2019-01-26T03:34:59.487Z,1.52
2019-01-26T03:35:59.492Z,1.53
2019-01-26T03:36:59.459Z,1.60
2019-01-26T03:37:59.507Z,1.53
2019-01-26T03:38:59.444Z,1.52
2019-01-26T03:39:59.413Z,1.39
2019-01-26T03:40:59.426Z,1.60
2019-01-26T03:41:59.434Z,1.49
2019-01-26T03:42:59.381Z,1.53
2019-01-26T03:43:59.428Z,1.50
2019-01-26T03:44:59.367Z,1.56
2019-01-26T03:45:59.358Z,1.50
2019-01-26T03:46:59.350Z,1.64
2019-01-26T03:47:59.324Z,1.39
2019-01-26T03:48:59.330Z,1.46
2019-01-26T03:49:59.332Z,1.53
2019-01-26T03:50:59.295Z,1.53
2019-01-26T03:51:59.287Z,1.49
2019-01-26T03:52:59.294Z,1.61
2019-01-26T03:53:59.300Z,1.57
2019-01-26T03:54:59.247Z,1.65
2019-01-26T03:55:59.291Z,1.60
2019-01-26T03:56:59.257Z,1.63
2019-01-26T03:57:59.238Z,1.65
2019-01-26T03:58:59.209Z,1.68
2019-01-26T03:59:59.237Z,1.70
2019-01-26T04:00:59.182Z,1.64
2019-01-26T04:01:59.201Z,1.70
2019-01-26T04:02:59.167Z,1.68
2019-01-26T04:03:59.162Z,1.65
2019-01-26T04:04:59.173Z,1.74
2019-01-26T04:05:59.150Z,1.68
2019-01-26T04:06:59.139Z,1.81
2019-01-26T04:07:59.134Z,1.77
2019-01-26T04:08:59.121Z,1.82
2019-01-26T04:09:59.100Z,1.79
2019-01-26T04:10:59.131Z,1.79
2019-01-26T04:11:59.132Z,1.77
2019-01-26T04:12:59.053Z,1.81
2019-01-26T04:13:59.078Z,1.86
2019-01-26T04:14:59.046Z,1.82
2019-01-26T04:15:59.047Z,1.86
2019-01-26T04:16:59.056Z,1.95
2019-01-26T04:17:59.059Z,1.95
2019-01-26T04:18:58.996Z,1.90
2019-01-26T04:19:58.986Z,2.04
2019-01-26T04:20:58.994Z,2.02
2019-01-26T04:21:59.002Z,2.02
2019-01-26T04:22:58.988Z,2.05
2019-01-26T04:23:58.936Z,2.01
2019-01-26T04:24:58.948Z,2.12
2019-01-26T04:25:58.938Z,2.23
2019-01-26T04:26:58.915Z,2.19
2019-01-26T04:27:58.935Z,2.20
2019-01-26T04:28:58.924Z,2.27
2019-01-26T04:29:58.882Z,2.23
2019-01-26T04:30:58.882Z,2.26
2019-01-26T04:31:58.909Z,2.26
2019-01-26T04:32:58.873Z,2.29
2019-01-26T04:33:58.861Z,2.32
2019-01-26T04:34:58.883Z,2.40
2019-01-26T04:35:58.817Z,2.37
2019-01-26T04:36:58.827Z,2.40
2019-01-26T04:37:58.833Z,2.36
2019-01-26T04:38:58.800Z,2.41
2019-01-26T04:39:58.777Z,2.47
2019-01-26T04:40:58.776Z,2.48
2019-01-26T04:41:58.746Z,2.48
2019-01-26T04:42:58.764Z,2.51
2019-01-26T04:43:58.735Z,2.44
2019-01-26T04:44:58.729Z,2.45
2019-01-26T04:45:58.709Z,2.48
2019-01-26T04:46:58.737Z,2.32
2019-01-26T04:47:59.035Z,2.33
2019-01-26T04:48:58.677Z,2.37
2019-01-26T04:49:58.680Z,2.53
2019-01-26T04:50:58.664Z,2.47
2019-01-26T04:51:58.692Z,2.40
2019-01-26T04:52:58.659Z,2.45
2019-01-26T04:53:58.633Z,2.40
2019-01-26T04:54:58.613Z,2.38
2019-01-26T04:55:58.603Z,2.36
2019-01-26T04:56:58.584Z,2.36
2019-01-26T04:57:58.645Z,2.43
2019-01-26T04:58:58.566Z,2.47
2019-01-26T04:59:58.575Z,2.43
2019-01-26T05:00:58.563Z,2.47
2019-01-26T05:01:58.554Z,2.44
2019-01-26T05:02:58.518Z,2.41
2019-01-26T05:03:58.529Z,2.48
2019-01-26T05:04:58.502Z,2.43
2019-01-26T05:05:58.497Z,2.32
2019-01-26T05:06:58.496Z,2.38
2019-01-26T05:07:58.502Z,2.33
2019-01-26T05:08:58.451Z,2.29
2019-01-26T05:09:58.470Z,2.29
2019-01-26T05:10:58.431Z,2.30
2019-01-26T05:11:58.452Z,2.32
2019-01-26T05:12:58.432Z,2.23
2019-01-26T05:13:58.413Z,2.25
2019-01-26T05:14:58.441Z,2.25
2019-01-26T05:15:58.444Z,2.23
2019-01-26T05:16:58.380Z,2.23
2019-01-26T05:17:58.383Z,2.26
2019-01-26T05:18:58.375Z,2.27
2019-01-26T05:19:58.374Z,2.23
2019-01-26T05:20:58.988Z,2.23
2019-01-26T05:21:58.460Z,2.23
2019-01-26T05:22:58.351Z,2.23
2019-01-26T05:23:58.288Z,2.22
2019-01-26T05:24:58.291Z,2.27
2019-01-26T05:25:58.269Z,2.23
2019-01-26T05:26:58.302Z,2.27
2019-01-26T05:27:58.249Z,2.23
2019-01-26T05:28:58.260Z,2.25
2019-01-26T05:29:58.239Z,2.20
2019-01-26T05:30:58.237Z,2.29
2019-01-26T05:31:58.240Z,2.25
2019-01-26T05:32:58.191Z,2.22
2019-01-26T05:33:58.231Z,2.25
2019-01-26T05:34:58.210Z,2.26
2019-01-26T05:35:58.169Z,2.27
2019-01-26T05:36:58.166Z,2.25
2019-01-26T05:37:58.194Z,2.26
2019-01-26T05:38:58.134Z,2.26
2019-01-26T05:39:58.139Z,2.23
2019-01-26T05:40:58.118Z,2.23
2019-01-26T05:41:58.126Z,2.23
2019-01-26T05:42:58.094Z,2.36
2019-01-26T05:43:58.094Z,2.27
2019-01-26T05:44:58.066Z,2.27
2019-01-26T05:45:58.084Z,2.22
2019-01-26T05:46:58.041Z,2.23
2019-01-26T05:47:58.051Z,2.23
2019-01-26T05:48:58.079Z,2.25
2019-01-26T05:49:58.014Z,2.30
2019-01-26T05:50:58.000Z,2.23
2019-01-26T05:51:58.087Z,2.25
2019-01-26T05:52:57.981Z,2.26
2019-01-26T05:53:57.981Z,2.26
2019-01-26T05:54:58.001Z,2.27
2019-01-26T05:55:57.951Z,2.27
2019-01-26T05:56:57.952Z,2.23
2019-01-26T05:57:57.925Z,2.30
2019-01-26T05:58:58.057Z,2.23
2019-01-26T05:59:57.918Z,2.25
2019-01-26T06:00:57.907Z,2.29
2019-01-26T06:01:57.877Z,2.25
2019-01-26T06:02:57.870Z,2.29
2019-01-26T06:03:57.856Z,2.27
2019-01-26T06:04:57.859Z,2.25
2019-01-26T06:05:57.863Z,2.29
2019-01-26T06:06:57.840Z,2.30
2019-01-26T06:07:57.823Z,2.30
2019-01-26T06:08:57.793Z,2.26
2019-01-26T06:09:57.795Z,2.29
2019-01-26T06:10:57.803Z,2.33
2019-01-26T06:11:57.808Z,2.38
2019-01-26T06:12:58.981Z,2.36
2019-01-26T06:13:57.753Z,2.36
2019-01-26T06:14:57.746Z,2.32
2019-01-26T06:15:57.803Z,2.32
2019-01-26T06:16:57.715Z,2.37
2019-01-26T06:17:57.736Z,2.43
2019-01-26T06:18:57.723Z,2.43
2019-01-26T06:19:57.689Z,2.36
2019-01-26T06:20:57.664Z,2.40
2019-01-26T06:21:57.697Z,2.38
2019-01-26T06:22:57.654Z,2.38
2019-01-26T06:23:57.653Z,2.36
2019-01-26T06:24:57.675Z,2.32
2019-01-26T06:25:57.625Z,2.41
2019-01-26T06:26:57.608Z,2.36
2019-01-26T06:27:57.609Z,2.36
2019-01-26T06:28:57.624Z,2.32
2019-01-26T06:29:57.594Z,2.38
2019-01-26T06:30:57.565Z,2.32
2019-01-26T06:31:57.549Z,2.43
2019-01-26T06:32:57.540Z,2.33
2019-01-26T06:33:57.551Z,2.43
2019-01-26T06:34:57.521Z,2.36
2019-01-26T06:35:57.534Z,2.38
2019-01-26T06:36:57.500Z,2.36
2019-01-26T06:37:57.482Z,2.33
2019-01-26T06:38:57.508Z,2.37
2019-01-26T06:39:57.472Z,2.38
2019-01-26T06:40:57.450Z,2.38
2019-01-26T06:41:57.452Z,2.33
2019-01-26T06:42:57.506Z,2.43
2019-01-26T06:43:57.488Z,2.33
2019-01-26T06:44:57.423Z,2.38
2019-01-26T06:45:57.394Z,2.36
2019-01-26T06:46:57.380Z,2.36
2019-01-26T06:48:02.017Z,2.40
2019-01-26T06:48:58.433Z,2.37
2019-01-26T06:49:57.357Z,2.38
2019-01-26T06:50:57.363Z,2.50
2019-01-26T06:51:57.325Z,2.33
2019-01-26T06:52:57.320Z,2.53
2019-01-26T06:53:57.346Z,2.40
2019-01-26T06:54:57.340Z,2.44
2019-01-26T06:55:57.288Z,2.41
2019-01-26T06:56:57.282Z,2.48
2019-01-26T06:57:57.289Z,2.48
2019-01-26T06:58:57.268Z,2.44
2019-01-26T06:59:57.272Z,2.38
2019-01-26T07:00:57.242Z,2.37
2019-01-26T07:01:57.422Z,2.36
2019-01-26T07:02:57.218Z,2.36
2019-01-26T07:03:57.199Z,2.36
2019-01-26T07:04:57.209Z,2.38
2019-01-26T07:05:57.203Z,2.30
2019-01-26T07:06:57.181Z,2.36
2019-01-26T07:07:57.180Z,2.33
2019-01-26T07:08:57.164Z,2.33
2019-01-26T07:09:57.163Z,2.29
2019-01-26T07:10:57.160Z,2.38
2019-01-26T07:11:57.130Z,2.38
2019-01-26T07:12:57.148Z,2.38
2019-01-26T07:13:57.100Z,2.41
2019-01-26T07:14:57.123Z,2.38
2019-01-26T07:15:57.067Z,2.37
2019-01-26T07:16:57.100Z,2.38
2019-01-26T07:17:57.054Z,2.43
2019-01-26T07:18:57.057Z,2.36
2019-01-26T07:19:57.173Z,2.38
2019-01-26T07:20:57.041Z,2.33
2019-01-26T07:21:57.045Z,2.33
2019-01-26T07:22:56.995Z,2.40
2019-01-26T07:23:56.995Z,2.36
2019-01-26T07:24:56.981Z,2.40
2019-01-26T07:25:56.984Z,2.36
2019-01-26T07:26:56.978Z,2.47
2019-01-26T07:27:56.940Z,2.40
2019-01-26T07:28:56.935Z,2.38
2019-01-26T07:29:56.948Z,2.47
2019-01-26T07:30:56.922Z,2.36
2019-01-26T07:31:56.915Z,2.45
2019-01-26T07:32:56.903Z,2.48
2019-01-26T07:33:56.899Z,2.48
2019-01-26T07:34:56.896Z,2.43
2019-01-26T07:35:56.873Z,2.48
2019-01-26T07:36:56.862Z,2.47
2019-01-26T07:37:56.825Z,2.43
2019-01-26T07:38:56.817Z,2.48
2019-01-26T07:39:56.799Z,2.50
2019-01-26T07:40:56.813Z,2.47
2019-01-26T07:41:56.787Z,2.43
2019-01-26T07:42:56.782Z,2.44
2019-01-26T07:43:56.765Z,2.50
2019-01-26T07:44:56.757Z,2.50
2019-01-26T07:45:56.810Z,2.45
2019-01-26T07:46:56.771Z,2.51
2019-01-26T07:47:56.725Z,2.50
2019-01-26T07:48:56.701Z,2.44
2019-01-26T07:49:56.696Z,2.45
2019-01-26T07:50:56.702Z,2.50
2019-01-26T07:51:56.706Z,2.44
2019-01-26T07:52:56.665Z,2.47
2019-01-26T07:53:56.666Z,2.50
2019-01-26T07:54:56.672Z,2.47
2019-01-26T07:55:56.652Z,2.47
2019-01-26T07:56:56.625Z,2.51
2019-01-26T07:57:56.626Z,2.56
2019-01-26T07:58:56.595Z,2.51
2019-01-26T07:59:56.605Z,2.51
2019-01-26T08:00:56.612Z,2.48
2019-01-26T08:01:56.562Z,2.53
2019-01-26T08:02:56.591Z,2.53
2019-01-26T08:03:56.537Z,2.53
2019-01-26T08:04:56.662Z,2.45
2019-01-26T08:05:56.526Z,2.55
2019-01-26T08:06:56.553Z,2.55
2019-01-26T08:07:56.525Z,2.50
2019-01-26T08:08:56.491Z,2.53
2019-01-26T08:09:56.485Z,2.56
2019-01-26T08:10:56.475Z,2.58
2019-01-26T08:11:56.454Z,2.47
2019-01-26T08:12:56.450Z,2.55
2019-01-26T08:13:56.465Z,2.59
2019-01-26T08:14:56.430Z,2.50
2019-01-26T08:15:56.405Z,2.58
2019-01-26T08:16:56.415Z,2.63
2019-01-26T08:17:56.395Z,2.62
2019-01-26T08:18:56.423Z,2.61
2019-01-26T08:19:56.368Z,2.66
2019-01-26T08:20:56.396Z,2.69
2019-01-26T08:21:56.374Z,2.66
2019-01-26T08:22:56.339Z,2.62
2019-01-26T08:23:56.346Z,2.59
2019-01-26T08:24:56.369Z,2.61
2019-01-26T08:25:56.308Z,2.66
2019-01-26T08:26:56.293Z,2.63
2019-01-26T08:27:56.286Z,2.74
2019-01-26T08:28:56.319Z,2.62
2019-01-26T08:29:56.261Z,2.74
2019-01-26T08:30:56.265Z,2.73
2019-01-26T08:31:56.268Z,2.65
2019-01-26T08:32:56.221Z,2.73
2019-01-26T08:33:56.291Z,2.73
2019-01-26T08:34:56.198Z,2.66
2019-01-26T08:35:56.496Z,2.84
2019-01-26T08:36:56.197Z,2.71
2019-01-26T08:37:56.204Z,2.79
2019-01-26T08:38:56.211Z,2.66
2019-01-26T08:39:56.162Z,2.79
2019-01-26T08:40:56.141Z,2.84
2019-01-26T08:41:56.171Z,2.81
2019-01-26T08:42:56.129Z,2.86
2019-01-26T08:43:56.099Z,2.81
2019-01-26T08:44:56.104Z,2.83
2019-01-26T08:45:56.102Z,2.89
2019-01-26T08:46:56.081Z,2.86
2019-01-26T08:47:56.104Z,2.86
2019-01-26T08:48:56.068Z,2.84
2019-01-26T08:49:56.043Z,2.86
2019-01-26T08:50:56.079Z,2.89
2019-01-26T08:51:56.040Z,2.86
2019-01-26T08:52:56.047Z,2.83
2019-01-26T08:53:56.000Z,2.84
2019-01-26T08:54:56.016Z,2.89
2019-01-26T08:55:55.978Z,2.90
2019-01-26T08:56:55.973Z,2.95
2019-01-26T08:57:55.977Z,2.86
2019-01-26T08:58:55.977Z,2.83
2019-01-26T08:59:55.939Z,2.97
2019-01-26T09:00:56.000Z,2.99
2019-01-26T09:01:55.910Z,2.92
2019-01-26T09:02:55.932Z,2.84
2019-01-26T09:03:55.913Z,3.01
2019-01-26T09:04:55.881Z,2.95
2019-01-26T09:05:55.881Z,2.94
2019-01-26T09:06:55.863Z,2.99
2019-01-26T09:07:55.846Z,3.04
2019-01-26T09:08:55.850Z,2.97
2019-01-26T09:09:55.829Z,2.97
2019-01-26T09:10:55.814Z,2.92
2019-01-26T09:11:55.801Z,2.97
2019-01-26T09:12:55.793Z,3.02
2019-01-26T09:13:55.799Z,2.95
2019-01-26T09:14:55.783Z,2.97
2019-01-26T09:15:55.772Z,3.04
2019-01-26T09:16:55.774Z,3.01
2019-01-26T09:17:55.762Z,3.10
2019-01-26T09:18:55.768Z,3.12
2019-01-26T09:19:55.726Z,2.99
2019-01-26T09:20:55.721Z,3.07
2019-01-26T09:21:55.698Z,3.15
2019-01-26T09:22:55.694Z,3.10
2019-01-26T09:23:55.704Z,3.04
2019-01-26T09:24:55.681Z,3.17
2019-01-26T09:25:55.679Z,3.10
2019-01-26T09:26:55.641Z,3.15
2019-01-26T09:27:55.653Z,3.12
2019-01-26T09:28:55.639Z,3.10
2019-01-26T09:29:55.659Z,3.12
2019-01-26T09:30:55.602Z,3.22
2019-01-26T09:31:55.598Z,3.15
2019-01-26T09:32:55.575Z,3.16
2019-01-26T09:33:55.564Z,3.17
2019-01-26T09:34:55.567Z,3.10
2019-01-26T09:35:55.573Z,3.10
2019-01-26T09:36:55.531Z,3.23
2019-01-26T09:37:55.542Z,3.20
2019-01-26T09:38:55.522Z,3.12
2019-01-26T09:39:55.503Z,3.22
2019-01-26T09:40:55.507Z,3.22
2019-01-26T09:41:55.477Z,3.17
2019-01-26T09:42:55.475Z,3.22
2019-01-26T09:43:55.455Z,3.31
2019-01-26T09:44:55.495Z,3.25
2019-01-26T09:45:55.500Z,3.22
2019-01-26T09:46:55.437Z,3.20
2019-01-26T09:47:55.410Z,3.22
2019-01-26T09:48:55.514Z,3.28
2019-01-26T09:49:55.392Z,3.22
2019-01-26T09:50:55.383Z,3.26
2019-01-26T09:51:55.407Z,3.22
2019-01-26T09:52:55.354Z,3.19
2019-01-26T09:53:55.476Z,3.22
2019-01-26T09:54:55.342Z,3.22
2019-01-26T09:55:55.322Z,3.37
2019-01-26T09:56:55.310Z,3.25
2019-01-26T09:57:55.338Z,3.28
2019-01-26T09:58:55.292Z,3.25
2019-01-26T09:59:55.285Z,3.26
2019-01-26T10:00:55.279Z,3.26
2019-01-26T10:01:55.268Z,3.22
2019-01-26T10:02:55.269Z,3.26
2019-01-26T10:03:55.243Z,3.35
2019-01-26T10:04:55.227Z,3.23
2019-01-26T10:05:55.216Z,3.33
2019-01-26T10:06:55.199Z,3.31
2019-01-26T10:07:55.225Z,3.39
2019-01-26T10:08:55.177Z,3.37
2019-01-26T10:09:55.184Z,3.34
2019-01-26T10:10:55.375Z,3.35
2019-01-26T10:11:55.160Z,3.42
2019-01-26T10:12:55.137Z,3.39
2019-01-26T10:13:55.172Z,3.35
2019-01-26T10:14:55.129Z,3.41
2019-01-26T10:15:55.120Z,3.33
2019-01-26T10:16:55.092Z,3.34
2019-01-26T10:17:55.102Z,3.42
2019-01-26T10:18:55.072Z,3.35
2019-01-26T10:19:55.154Z,3.45
2019-01-26T10:20:55.068Z,3.50
2019-01-26T10:21:55.037Z,3.49
2019-01-26T10:22:55.034Z,3.46
2019-01-26T10:23:55.031Z,3.50
2019-01-26T10:24:55.042Z,3.56
2019-01-26T10:25:55.008Z,3.52
2019-01-26T10:26:54.992Z,3.52
2019-01-26T10:27:54.974Z,3.53
2019-01-26T10:28:54.971Z,3.49
2019-01-26T10:29:54.980Z,3.53
2019-01-26T10:30:55.079Z,3.52
2019-01-26T10:31:54.951Z,3.46
2019-01-26T10:32:54.934Z,3.50
2019-01-26T10:33:54.909Z,3.52
2019-01-26T10:34:54.906Z,3.42
2019-01-26T10:35:54.927Z,3.50
2019-01-26T10:36:54.878Z,3.49
2019-01-26T10:37:54.919Z,3.50
2019-01-26T10:38:54.866Z,3.45
2019-01-26T10:39:54.869Z,3.45
2019-01-26T10:40:54.879Z,3.46
2019-01-26T10:41:54.862Z,3.56
2019-01-26T10:42:54.816Z,3.54
2019-01-26T10:43:54.826Z,3.45
2019-01-26T10:44:54.853Z,3.59
2019-01-26T10:45:54.791Z,3.67
2019-01-26T10:46:54.790Z,3.63
2019-01-26T10:47:54.803Z,3.64
2019-01-26T10:49:00.651Z,3.60
2019-01-26T10:49:55.747Z,3.64
2019-01-26T10:50:54.743Z,3.60
2019-01-26T10:51:54.757Z,3.62
2019-01-26T10:52:54.713Z,3.63
2019-01-26T10:53:54.709Z,3.68
2019-01-26T10:54:54.718Z,3.74
2019-01-26T10:55:54.791Z,3.77
2019-01-26T10:56:54.685Z,3.71
2019-01-26T10:57:54.701Z,3.72
2019-01-26T10:58:54.666Z,3.80
2019-01-26T10:59:54.635Z,3.80
2019-01-26T11:00:54.626Z,3.80
2019-01-26T11:01:54.635Z,3.78
2019-01-26T11:02:54.612Z,3.77
2019-01-26T11:03:54.607Z,3.80
2019-01-26T11:04:55.449Z,3.77
2019-01-26T11:05:54.622Z,3.82
2019-01-26T11:06:54.560Z,3.74
2019-01-26T11:07:54.627Z,3.81
2019-01-26T11:08:54.560Z,3.80
2019-01-26T11:09:54.542Z,3.77
2019-01-26T11:10:54.517Z,3.82
2019-01-26T11:11:54.537Z,3.86
2019-01-26T11:12:54.494Z,3.89
2019-01-26T11:13:54.516Z,3.88
2019-01-26T11:14:54.480Z,3.89
2019-01-26T11:15:54.487Z,3.92
2019-01-26T11:16:54.473Z,3.89
2019-01-26T11:17:54.449Z,3.86
2019-01-26T11:18:54.437Z,3.90
2019-01-26T11:19:54.444Z,3.82
2019-01-26T11:20:54.444Z,3.92
2019-01-26T11:21:54.418Z,3.96
2019-01-26T11:22:54.439Z,3.96
2019-01-26T11:23:54.389Z,3.90
2019-01-26T11:24:54.648Z,3.95
2019-01-26T11:25:54.376Z,3.89
2019-01-26T11:26:54.361Z,3.92
2019-01-26T11:27:54.348Z,3.95
2019-01-26T11:28:54.373Z,4.02
2019-01-26T11:29:54.328Z,3.95
2019-01-26T11:30:54.343Z,4.04
2019-01-26T11:31:54.323Z,4.06
2019-01-26T11:32:54.293Z,3.98
2019-01-26T11:33:54.292Z,4.04
2019-01-26T11:34:54.290Z,4.04
2019-01-26T11:35:54.324Z,4.07
2019-01-26T11:36:54.273Z,4.11
2019-01-26T11:37:54.244Z,4.10
2019-01-26T11:38:54.234Z,4.11
2019-01-26T11:39:54.221Z,4.11
2019-01-26T11:40:54.233Z,4.13
2019-01-26T11:41:54.189Z,4.18
2019-01-26T11:42:54.182Z,4.11
2019-01-26T11:43:54.197Z,4.14
2019-01-26T11:44:54.269Z,4.18
2019-01-26T11:45:54.200Z,4.18
2019-01-26T11:46:54.145Z,4.26
2019-01-26T11:47:54.133Z,4.26
2019-01-26T11:48:54.122Z,4.35
2019-01-26T11:49:54.165Z,4.32
2019-01-26T11:50:54.110Z,4.31
2019-01-26T11:51:54.119Z,4.32
2019-01-26T11:52:54.175Z,4.29
2019-01-26T11:53:54.120Z,4.28
2019-01-26T11:54:54.059Z,4.31
2019-01-26T11:55:54.115Z,4.28
2019-01-26T11:56:54.046Z,4.28
2019-01-26T11:57:54.148Z,4.29
2019-01-26T11:58:54.018Z,4.32
2019-01-26T11:59:54.007Z,4.35
2019-01-26T12:00:59.281Z,4.39
2019-01-26T12:01:55.004Z,4.38
2019-01-26T12:02:54.080Z,4.43
2019-01-26T12:03:53.991Z,4.44
2019-01-26T12:04:53.956Z,4.39
2019-01-26T12:05:53.950Z,4.38
2019-01-26T12:06:53.965Z,4.36
2019-01-26T12:07:54.021Z,4.46
2019-01-26T12:08:53.935Z,4.39
2019-01-26T12:09:53.943Z,4.43
2019-01-26T12:10:53.893Z,4.50
2019-01-26T12:11:53.889Z,4.46
2019-01-26T12:12:53.880Z,4.44
2019-01-26T12:13:53.899Z,4.47
2019-01-26T12:14:53.860Z,4.39
2019-01-26T12:15:53.862Z,4.43
2019-01-26T12:16:53.829Z,4.43
2019-01-26T12:17:53.830Z,4.44
2019-01-26T12:18:53.846Z,4.49
2019-01-26T12:19:53.833Z,4.47
2019-01-26T12:20:53.815Z,4.46
2019-01-26T12:21:53.801Z,4.43
2019-01-26T12:22:53.758Z,4.43
2019-01-26T12:23:53.762Z,4.44
2019-01-26T12:24:53.763Z,4.43
2019-01-26T12:25:53.752Z,4.49
2019-01-26T12:26:53.743Z,4.47
2019-01-26T12:27:53.746Z,4.49
2019-01-26T12:28:53.697Z,4.43
2019-01-26T12:29:53.720Z,4.47
2019-01-26T12:30:53.719Z,4.49
2019-01-26T12:31:53.685Z,4.44
2019-01-26T12:32:53.680Z,4.43
2019-01-26T12:33:53.657Z,4.49
2019-01-26T12:34:53.643Z,4.53
2019-01-26T12:35:53.666Z,4.57
2019-01-26T12:36:53.617Z,4.43
2019-01-26T12:37:53.604Z,4.61
2019-01-26T12:38:53.608Z,4.49
2019-01-26T12:39:53.630Z,4.43
2019-01-26T12:40:53.622Z,4.47
2019-01-26T12:41:53.581Z,4.57
2019-01-26T12:42:53.580Z,4.47
2019-01-26T12:43:53.554Z,4.53
2019-01-26T12:44:53.561Z,4.47
2019-01-26T12:45:53.533Z,4.53
2019-01-26T12:46:53.531Z,4.54
2019-01-26T12:47:53.517Z,4.56
2019-01-26T12:48:53.498Z,4.54
2019-01-26T12:49:53.492Z,4.56
2019-01-26T12:50:53.493Z,4.50
2019-01-26T12:51:53.497Z,4.49
2019-01-26T12:52:53.463Z,4.54
2019-01-26T12:53:53.446Z,4.61
2019-01-26T12:54:53.435Z,4.57
2019-01-26T12:55:53.433Z,4.61
2019-01-26T12:56:53.437Z,4.64
2019-01-26T12:57:53.397Z,4.61
2019-01-26T12:58:54.594Z,4.62
2019-01-26T12:59:53.401Z,4.67
2019-01-26T13:00:53.370Z,4.59
2019-01-26T13:01:53.401Z,4.59
2019-01-26T13:02:53.360Z,4.57
2019-01-26T13:03:53.379Z,4.64
2019-01-26T13:04:53.331Z,4.62
2019-01-26T13:05:53.317Z,4.59
2019-01-26T13:06:53.343Z,4.59
2019-01-26T13:07:53.305Z,4.56
2019-01-26T13:08:53.319Z,4.59
2019-01-26T13:09:53.273Z,4.68
2019-01-26T13:10:53.260Z,4.71
2019-01-26T13:11:53.273Z,4.68
2019-01-26T13:12:53.241Z,4.68
2019-01-26T13:13:53.257Z,4.74
2019-01-26T13:14:53.236Z,4.68
2019-01-26T13:15:53.210Z,4.68